sensor_id;sensor_type;location;lat;lon;timestamp;P1;durP1;ratioP1;P2;durP2;ratioP2
66342;SDS011;53144;51.524;5.080;2023-08-17T00:01:01;4.43;;;2.10;;
66342;SDS011;53144;51.524;5.080;2023-08-17T00:03:27;3.03;;;1.83;;
66342;SDS011;53144;51.524;5.080;2023-08-17T00:05:53;10.60;;;2.00;;
66342;SDS011;53144;51.524;5.080;2023-08-17T00:08:18;9.60;;;2.22;;
66342;SDS011;53144;51.524;5.080;2023-08-17T00:10:43;3.92;;;1.90;;
66342;SDS011;53144;51.524;5.080;2023-08-17T00:13:09;4.63;;;2.15;;
66342;SDS011;53144;51.524;5.080;2023-08-17T00:15:34;6.43;;;2.30;;
66342;SDS011;53144;51.524;5.080;2023-08-17T00:18:00;3.38;;;1.90;;
66342;SDS011;53144;51.524;5.080;2023-08-17T00:20:25;4.53;;;1.90;;
66342;SDS011;53144;51.524;5.080;2023-08-17T00:22:51;4.35;;;1.92;;
66342;SDS011;53144;51.524;5.080;2023-08-17T00:25:16;2.88;;;1.88;;
66342;SDS011;53144;51.524;5.080;2023-08-17T00:27:42;6.50;;;2.10;;
66342;SDS011;53144;51.524;5.080;2023-08-17T00:30:07;2.55;;;1.83;;
66342;SDS011;53144;51.524;5.080;2023-08-17T00:32:33;4.90;;;2.25;;
66342;SDS011;53144;51.524;5.080;2023-08-17T00:34:59;8.25;;;1.95;;
66342;SDS011;53144;51.524;5.080;2023-08-17T00:37:24;5.50;;;2.08;;
66342;SDS011;53144;51.524;5.080;2023-08-17T00:39:49;4.05;;;1.90;;
66342;SDS011;53144;51.524;5.080;2023-08-17T00:42:15;3.63;;;1.90;;
66342;SDS011;53144;51.524;5.080;2023-08-17T00:44:40;5.57;;;1.90;;
66342;SDS011;53144;51.524;5.080;2023-08-17T00:47:06;6.53;;;1.98;;
66342;SDS011;53144;51.524;5.080;2023-08-17T00:49:32;1.70;;;1.60;;
66342;SDS011;53144;51.524;5.080;2023-08-17T00:51:58;4.78;;;1.80;;
66342;SDS011;53144;51.524;5.080;2023-08-17T00:54:24;4.97;;;1.80;;
66342;SDS011;53144;51.524;5.080;2023-08-17T00:56:50;3.05;;;1.80;;
66342;SDS011;53144;51.524;5.080;2023-08-17T00:59:17;4.85;;;2.05;;
66342;SDS011;53144;51.524;5.080;2023-08-17T01:01:43;7.07;;;2.20;;
66342;SDS011;53144;51.524;5.080;2023-08-17T01:04:08;4.38;;;2.15;;
66342;SDS011;53144;51.524;5.080;2023-08-17T01:06:34;9.70;;;2.20;;
66342;SDS011;53144;51.524;5.080;2023-08-17T01:09:00;4.65;;;1.85;;
66342;SDS011;53144;51.524;5.080;2023-08-17T01:14:02;4.45;;;1.90;;
66342;SDS011;53144;51.524;5.080;2023-08-17T01:16:47;3.92;;;1.95;;
66342;SDS011;53144;51.524;5.080;2023-08-17T01:19:22;4.60;;;2.30;;
66342;SDS011;53144;51.524;5.080;2023-08-17T01:21:51;10.15;;;2.80;;
66342;SDS011;53144;51.524;5.080;2023-08-17T01:24:21;5.32;;;1.98;;
66342;SDS011;53144;51.524;5.080;2023-08-17T01:26:47;5.05;;;2.03;;
66342;SDS011;53144;51.524;5.080;2023-08-17T01:29:12;3.97;;;1.83;;
66342;SDS011;53144;51.524;5.080;2023-08-17T01:31:51;8.65;;;2.15;;
66342;SDS011;53144;51.524;5.080;2023-08-17T01:34:29;6.43;;;2.22;;
66342;SDS011;53144;51.524;5.080;2023-08-17T01:37:00;6.40;;;2.38;;
66342;SDS011;53144;51.524;5.080;2023-08-17T01:39:27;5.13;;;2.00;;
66342;SDS011;53144;51.524;5.080;2023-08-17T01:41:59;6.88;;;2.08;;
66342;SDS011;53144;51.524;5.080;2023-08-17T01:44:26;5.72;;;2.30;;
66342;SDS011;53144;51.524;5.080;2023-08-17T01:46:52;5.03;;;2.15;;
66342;SDS011;53144;51.524;5.080;2023-08-17T01:49:18;7.22;;;2.58;;
66342;SDS011;53144;51.524;5.080;2023-08-17T01:51:43;3.42;;;2.08;;
66342;SDS011;53144;51.524;5.080;2023-08-17T01:54:09;3.95;;;2.10;;
66342;SDS011;53144;51.524;5.080;2023-08-17T01:56:34;5.30;;;2.20;;
66342;SDS011;53144;51.524;5.080;2023-08-17T01:59:00;5.85;;;1.95;;
66342;SDS011;53144;51.524;5.080;2023-08-17T02:01:25;5.53;;;2.13;;
66342;SDS011;53144;51.524;5.080;2023-08-17T02:03:51;6.32;;;1.85;;
66342;SDS011;53144;51.524;5.080;2023-08-17T02:06:16;4.22;;;2.00;;
66342;SDS011;53144;51.524;5.080;2023-08-17T02:08:42;2.90;;;1.73;;
66342;SDS011;53144;51.524;5.080;2023-08-17T02:11:07;5.45;;;1.83;;
66342;SDS011;53144;51.524;5.080;2023-08-17T02:13:34;4.50;;;1.95;;
66342;SDS011;53144;51.524;5.080;2023-08-17T02:16:01;6.18;;;2.10;;
66342;SDS011;53144;51.524;5.080;2023-08-17T02:18:26;3.13;;;1.80;;
66342;SDS011;53144;51.524;5.080;2023-08-17T02:20:55;6.05;;;2.00;;
66342;SDS011;53144;51.524;5.080;2023-08-17T02:23:21;6.57;;;1.90;;
66342;SDS011;53144;51.524;5.080;2023-08-17T02:25:47;5.22;;;1.90;;
66342;SDS011;53144;51.524;5.080;2023-08-17T02:28:12;4.63;;;2.20;;
66342;SDS011;53144;51.524;5.080;2023-08-17T02:30:38;3.35;;;2.00;;
66342;SDS011;53144;51.524;5.080;2023-08-17T02:33:03;5.25;;;2.00;;
66342;SDS011;53144;51.524;5.080;2023-08-17T02:35:29;6.35;;;2.08;;
66342;SDS011;53144;51.524;5.080;2023-08-17T02:37:55;3.80;;;1.90;;
66342;SDS011;53144;51.524;5.080;2023-08-17T02:40:20;5.32;;;1.73;;
66342;SDS011;53144;51.524;5.080;2023-08-17T02:42:46;6.07;;;2.10;;
66342;SDS011;53144;51.524;5.080;2023-08-17T02:45:11;5.30;;;2.30;;
66342;SDS011;53144;51.524;5.080;2023-08-17T02:47:37;3.70;;;2.00;;
66342;SDS011;53144;51.524;5.080;2023-08-17T02:50:03;3.60;;;1.90;;
66342;SDS011;53144;51.524;5.080;2023-08-17T02:52:28;5.45;;;1.90;;
66342;SDS011;53144;51.524;5.080;2023-08-17T02:54:54;3.80;;;2.10;;
66342;SDS011;53144;51.524;5.080;2023-08-17T02:57:19;5.50;;;1.95;;
66342;SDS011;53144;51.524;5.080;2023-08-17T02:59:45;5.00;;;1.90;;
66342;SDS011;53144;51.524;5.080;2023-08-17T03:02:11;6.18;;;1.60;;
66342;SDS011;53144;51.524;5.080;2023-08-17T03:04:36;4.43;;;1.80;;
66342;SDS011;53144;51.524;5.080;2023-08-17T03:07:02;5.78;;;2.33;;
66342;SDS011;53144;51.524;5.080;2023-08-17T03:09:27;5.72;;;2.03;;
66342;SDS011;53144;51.524;5.080;2023-08-17T03:11:52;4.97;;;1.75;;
66342;SDS011;53144;51.524;5.080;2023-08-17T03:14:18;10.25;;;2.10;;
66342;SDS011;53144;51.524;5.080;2023-08-17T03:16:43;3.97;;;1.90;;
66342;SDS011;53144;51.524;5.080;2023-08-17T03:19:09;6.00;;;1.95;;
66342;SDS011;53144;51.524;5.080;2023-08-17T03:21:36;4.38;;;1.90;;
66342;SDS011;53144;51.524;5.080;2023-08-17T03:24:02;7.28;;;1.90;;
66342;SDS011;53144;51.524;5.080;2023-08-17T03:26:27;4.20;;;1.80;;
66342;SDS011;53144;51.524;5.080;2023-08-17T03:28:53;3.88;;;1.73;;
66342;SDS011;53144;51.524;5.080;2023-08-17T03:31:21;4.40;;;1.92;;
66342;SDS011;53144;51.524;5.080;2023-08-17T03:33:47;3.75;;;1.58;;
66342;SDS011;53144;51.524;5.080;2023-08-17T03:36:13;5.25;;;1.83;;
66342;SDS011;53144;51.524;5.080;2023-08-17T03:38:39;3.53;;;1.88;;
66342;SDS011;53144;51.524;5.080;2023-08-17T03:41:05;3.53;;;1.70;;
66342;SDS011;53144;51.524;5.080;2023-08-17T03:43:30;6.22;;;2.03;;
66342;SDS011;53144;51.524;5.080;2023-08-17T03:45:56;4.10;;;1.70;;
66342;SDS011;53144;51.524;5.080;2023-08-17T03:48:21;7.05;;;2.13;;
66342;SDS011;53144;51.524;5.080;2023-08-17T03:50:50;2.92;;;1.70;;
66342;SDS011;53144;51.524;5.080;2023-08-17T03:53:17;4.55;;;1.67;;
66342;SDS011;53144;51.524;5.080;2023-08-17T03:55:45;3.10;;;1.70;;
66342;SDS011;53144;51.524;5.080;2023-08-17T03:58:13;3.40;;;1.70;;
66342;SDS011;53144;51.524;5.080;2023-08-17T04:00:39;7.15;;;2.33;;
66342;SDS011;53144;51.524;5.080;2023-08-17T04:03:05;4.63;;;1.90;;
66342;SDS011;53144;51.524;5.080;2023-08-17T04:05:31;5.03;;;1.88;;
66342;SDS011;53144;51.524;5.080;2023-08-17T04:07:58;5.32;;;2.08;;
66342;SDS011;53144;51.524;5.080;2023-08-17T04:10:30;5.65;;;2.17;;
66342;SDS011;53144;51.524;5.080;2023-08-17T04:12:56;6.72;;;1.98;;
66342;SDS011;53144;51.524;5.080;2023-08-17T04:15:22;5.63;;;2.10;;
66342;SDS011;53144;51.524;5.080;2023-08-17T04:17:47;5.03;;;1.85;;
66342;SDS011;53144;51.524;5.080;2023-08-17T04:20:12;3.30;;;1.90;;
66342;SDS011;53144;51.524;5.080;2023-08-17T04:22:38;4.13;;;1.80;;
66342;SDS011;53144;51.524;5.080;2023-08-17T04:25:03;5.03;;;1.83;;
66342;SDS011;53144;51.524;5.080;2023-08-17T04:27:29;5.47;;;1.77;;
66342;SDS011;53144;51.524;5.080;2023-08-17T04:29:54;6.90;;;2.17;;
66342;SDS011;53144;51.524;5.080;2023-08-17T04:32:20;6.03;;;1.65;;
66342;SDS011;53144;51.524;5.080;2023-08-17T04:34:45;4.60;;;2.05;;
66342;SDS011;53144;51.524;5.080;2023-08-17T04:37:11;6.28;;;2.17;;
66342;SDS011;53144;51.524;5.080;2023-08-17T04:39:37;5.95;;;2.63;;
66342;SDS011;53144;51.524;5.080;2023-08-17T04:42:03;6.18;;;2.55;;
66342;SDS011;53144;51.524;5.080;2023-08-17T04:44:28;3.83;;;1.80;;
66342;SDS011;53144;51.524;5.080;2023-08-17T04:46:54;4.35;;;1.90;;
66342;SDS011;53144;51.524;5.080;2023-08-17T04:49:19;8.13;;;2.15;;
66342;SDS011;53144;51.524;5.080;2023-08-17T04:51:45;5.90;;;2.28;;
66342;SDS011;53144;51.524;5.080;2023-08-17T04:54:10;4.40;;;2.10;;
66342;SDS011;53144;51.524;5.080;2023-08-17T04:56:35;7.72;;;1.90;;
66342;SDS011;53144;51.524;5.080;2023-08-17T04:59:01;5.47;;;2.20;;
66342;SDS011;53144;51.524;5.080;2023-08-17T05:01:26;8.95;;;2.50;;
66342;SDS011;53144;51.524;5.080;2023-08-17T05:03:52;3.00;;;2.05;;
66342;SDS011;53144;51.524;5.080;2023-08-17T05:06:17;6.32;;;2.40;;
66342;SDS011;53144;51.524;5.080;2023-08-17T05:08:43;7.25;;;2.38;;
66342;SDS011;53144;51.524;5.080;2023-08-17T05:11:08;4.93;;;2.45;;
66342;SDS011;53144;51.524;5.080;2023-08-17T05:13:33;3.35;;;1.77;;
66342;SDS011;53144;51.524;5.080;2023-08-17T05:15:59;8.25;;;2.30;;
66342;SDS011;53144;51.524;5.080;2023-08-17T05:18:24;4.05;;;2.08;;
66342;SDS011;53144;51.524;5.080;2023-08-17T05:20:50;5.40;;;2.10;;
66342;SDS011;53144;51.524;5.080;2023-08-17T05:23:15;4.45;;;2.50;;
66342;SDS011;53144;51.524;5.080;2023-08-17T05:25:41;3.67;;;2.00;;
66342;SDS011;53144;51.524;5.080;2023-08-17T05:28:06;5.63;;;2.30;;
66342;SDS011;53144;51.524;5.080;2023-08-17T05:30:32;4.85;;;2.15;;
66342;SDS011;53144;51.524;5.080;2023-08-17T05:32:58;5.75;;;2.40;;
66342;SDS011;53144;51.524;5.080;2023-08-17T05:35:23;6.95;;;2.50;;
66342;SDS011;53144;51.524;5.080;2023-08-17T05:37:49;4.35;;;2.05;;
66342;SDS011;53144;51.524;5.080;2023-08-17T05:40:14;5.60;;;2.03;;
66342;SDS011;53144;51.524;5.080;2023-08-17T05:42:40;6.05;;;2.15;;
66342;SDS011;53144;51.524;5.080;2023-08-17T05:45:05;2.90;;;2.15;;
66342;SDS011;53144;51.524;5.080;2023-08-17T05:47:34;5.03;;;2.13;;
66342;SDS011;53144;51.524;5.080;2023-08-17T05:50:00;5.05;;;2.50;;
66342;SDS011;53144;51.524;5.080;2023-08-17T05:52:26;4.70;;;2.53;;
66342;SDS011;53144;51.524;5.080;2023-08-17T05:54:51;3.53;;;2.25;;
66342;SDS011;53144;51.524;5.080;2023-08-17T05:57:16;7.78;;;2.50;;
66342;SDS011;53144;51.524;5.080;2023-08-17T05:59:42;5.63;;;2.25;;
66342;SDS011;53144;51.524;5.080;2023-08-17T06:02:07;5.68;;;2.25;;
66342;SDS011;53144;51.524;5.080;2023-08-17T06:04:33;5.13;;;2.50;;
66342;SDS011;53144;51.524;5.080;2023-08-17T06:06:58;7.32;;;2.42;;
66342;SDS011;53144;51.524;5.080;2023-08-17T06:09:23;7.97;;;2.53;;
66342;SDS011;53144;51.524;5.080;2023-08-17T06:11:49;7.40;;;2.60;;
66342;SDS011;53144;51.524;5.080;2023-08-17T06:14:14;8.40;;;2.50;;
66342;SDS011;53144;51.524;5.080;2023-08-17T06:16:40;4.75;;;2.30;;
66342;SDS011;53144;51.524;5.080;2023-08-17T06:19:05;7.68;;;2.63;;
66342;SDS011;53144;51.524;5.080;2023-08-17T06:21:31;5.10;;;2.60;;
66342;SDS011;53144;51.524;5.080;2023-08-17T06:23:56;5.38;;;2.47;;
66342;SDS011;53144;51.524;5.080;2023-08-17T06:26:22;5.25;;;2.50;;
66342;SDS011;53144;51.524;5.080;2023-08-17T06:28:47;4.40;;;2.28;;
66342;SDS011;53144;51.524;5.080;2023-08-17T06:31:15;4.78;;;2.22;;
66342;SDS011;53144;51.524;5.080;2023-08-17T06:33:41;4.90;;;2.60;;
66342;SDS011;53144;51.524;5.080;2023-08-17T06:36:07;6.70;;;2.30;;
66342;SDS011;53144;51.524;5.080;2023-08-17T06:38:32;4.30;;;2.17;;
66342;SDS011;53144;51.524;5.080;2023-08-17T06:40:57;5.10;;;2.47;;
66342;SDS011;53144;51.524;5.080;2023-08-17T06:43:23;4.35;;;2.63;;
66342;SDS011;53144;51.524;5.080;2023-08-17T06:45:48;6.35;;;2.78;;
66342;SDS011;53144;51.524;5.080;2023-08-17T06:48:14;8.68;;;2.80;;
66342;SDS011;53144;51.524;5.080;2023-08-17T06:50:39;11.15;;;2.97;;
66342;SDS011;53144;51.524;5.080;2023-08-17T06:53:05;9.93;;;2.50;;
66342;SDS011;53144;51.524;5.080;2023-08-17T06:55:30;5.03;;;2.15;;
66342;SDS011;53144;51.524;5.080;2023-08-17T06:57:56;8.00;;;2.72;;
66342;SDS011;53144;51.524;5.080;2023-08-17T07:00:22;4.40;;;2.42;;
66342;SDS011;53144;51.524;5.080;2023-08-17T07:02:47;7.85;;;2.20;;
66342;SDS011;53144;51.524;5.080;2023-08-17T07:05:16;5.70;;;2.40;;
66342;SDS011;53144;51.524;5.080;2023-08-17T07:07:43;8.82;;;2.90;;
66342;SDS011;53144;51.524;5.080;2023-08-17T07:10:09;7.40;;;2.60;;
66342;SDS011;53144;51.524;5.080;2023-08-17T07:12:36;7.93;;;2.40;;
66342;SDS011;53144;51.524;5.080;2023-08-17T07:15:05;4.38;;;2.80;;
66342;SDS011;53144;51.524;5.080;2023-08-17T07:17:31;18.55;;;2.42;;
66342;SDS011;53144;51.524;5.080;2023-08-17T07:19:59;6.13;;;2.20;;
66342;SDS011;53144;51.524;5.080;2023-08-17T07:22:24;5.85;;;2.53;;
66342;SDS011;53144;51.524;5.080;2023-08-17T07:24:49;6.30;;;2.65;;
66342;SDS011;53144;51.524;5.080;2023-08-17T07:27:15;7.25;;;2.63;;
66342;SDS011;53144;51.524;5.080;2023-08-17T07:29:40;8.10;;;3.22;;
66342;SDS011;53144;51.524;5.080;2023-08-17T07:32:06;6.25;;;2.75;;
66342;SDS011;53144;51.524;5.080;2023-08-17T07:34:32;6.28;;;2.80;;
66342;SDS011;53144;51.524;5.080;2023-08-17T07:36:58;9.20;;;3.03;;
66342;SDS011;53144;51.524;5.080;2023-08-17T07:39:23;5.35;;;3.00;;
66342;SDS011;53144;51.524;5.080;2023-08-17T07:41:48;5.88;;;3.30;;
66342;SDS011;53144;51.524;5.080;2023-08-17T07:44:14;10.73;;;3.47;;
66342;SDS011;53144;51.524;5.080;2023-08-17T07:46:39;9.90;;;3.22;;
66342;SDS011;53144;51.524;5.080;2023-08-17T07:49:05;9.68;;;3.22;;
66342;SDS011;53144;51.524;5.080;2023-08-17T07:51:31;10.88;;;3.00;;
66342;SDS011;53144;51.524;5.080;2023-08-17T07:53:59;5.45;;;3.17;;
66342;SDS011;53144;51.524;5.080;2023-08-17T07:56:28;7.22;;;2.92;;
66342;SDS011;53144;51.524;5.080;2023-08-17T07:58:53;6.13;;;2.90;;
66342;SDS011;53144;51.524;5.080;2023-08-17T08:01:19;7.10;;;3.22;;
66342;SDS011;53144;51.524;5.080;2023-08-17T08:03:45;9.30;;;3.70;;
66342;SDS011;53144;51.524;5.080;2023-08-17T08:06:10;5.10;;;3.20;;
66342;SDS011;53144;51.524;5.080;2023-08-17T08:08:36;5.47;;;2.80;;
66342;SDS011;53144;51.524;5.080;2023-08-17T08:11:01;6.50;;;2.88;;
66342;SDS011;53144;51.524;5.080;2023-08-17T08:13:29;8.88;;;2.92;;
66342;SDS011;53144;51.524;5.080;2023-08-17T08:15:55;4.80;;;2.55;;
66342;SDS011;53144;51.524;5.080;2023-08-17T08:18:20;8.05;;;2.78;;
66342;SDS011;53144;51.524;5.080;2023-08-17T08:20:46;8.82;;;2.85;;
66342;SDS011;53144;51.524;5.080;2023-08-17T08:23:11;5.28;;;2.80;;
66342;SDS011;53144;51.524;5.080;2023-08-17T08:25:37;9.63;;;3.10;;
66342;SDS011;53144;51.524;5.080;2023-08-17T08:28:02;7.25;;;2.97;;
66342;SDS011;53144;51.524;5.080;2023-08-17T08:30:28;5.97;;;2.80;;
66342;SDS011;53144;51.524;5.080;2023-08-17T08:32:53;6.43;;;3.08;;
66342;SDS011;53144;51.524;5.080;2023-08-17T08:35:22;7.82;;;3.20;;
66342;SDS011;53144;51.524;5.080;2023-08-17T08:37:49;7.10;;;3.00;;
66342;SDS011;53144;51.524;5.080;2023-08-17T08:40:15;7.63;;;2.85;;
66342;SDS011;53144;51.524;5.080;2023-08-17T08:42:42;5.40;;;2.95;;
66342;SDS011;53144;51.524;5.080;2023-08-17T08:45:08;6.47;;;3.15;;
66342;SDS011;53144;51.524;5.080;2023-08-17T08:47:34;5.75;;;3.60;;
66342;SDS011;53144;51.524;5.080;2023-08-17T08:50:02;4.07;;;2.95;;
66342;SDS011;53144;51.524;5.080;2023-08-17T08:54:59;7.95;;;3.25;;
66342;SDS011;53144;51.524;5.080;2023-08-17T08:57:35;8.10;;;3.08;;
66342;SDS011;53144;51.524;5.080;2023-08-17T09:00:02;6.57;;;2.72;;
66342;SDS011;53144;51.524;5.080;2023-08-17T09:02:28;7.20;;;2.80;;
66342;SDS011;53144;51.524;5.080;2023-08-17T09:04:55;9.05;;;2.97;;
66342;SDS011;53144;51.524;5.080;2023-08-17T09:07:21;7.10;;;3.40;;
66342;SDS011;53144;51.524;5.080;2023-08-17T09:09:47;7.97;;;3.25;;
66342;SDS011;53144;51.524;5.080;2023-08-17T09:12:13;6.15;;;3.45;;
66342;SDS011;53144;51.524;5.080;2023-08-17T09:14:38;7.45;;;3.72;;
66342;SDS011;53144;51.524;5.080;2023-08-17T09:17:06;8.32;;;3.90;;
66342;SDS011;53144;51.524;5.080;2023-08-17T09:19:32;8.60;;;3.03;;
66342;SDS011;53144;51.524;5.080;2023-08-17T09:21:58;9.45;;;3.70;;
66342;SDS011;53144;51.524;5.080;2023-08-17T09:24:33;6.68;;;3.45;;
66342;SDS011;53144;51.524;5.080;2023-08-17T09:26:59;8.30;;;3.53;;
66342;SDS011;53144;51.524;5.080;2023-08-17T09:29:25;8.07;;;3.50;;
66342;SDS011;53144;51.524;5.080;2023-08-17T09:31:50;8.98;;;3.85;;
66342;SDS011;53144;51.524;5.080;2023-08-17T09:34:16;5.03;;;3.45;;
66342;SDS011;53144;51.524;5.080;2023-08-17T09:36:41;10.15;;;3.95;;
66342;SDS011;53144;51.524;5.080;2023-08-17T09:39:07;6.35;;;3.40;;
66342;SDS011;53144;51.524;5.080;2023-08-17T09:41:40;6.68;;;3.38;;
66342;SDS011;53144;51.524;5.080;2023-08-17T09:44:06;5.53;;;3.42;;
66342;SDS011;53144;51.524;5.080;2023-08-17T09:46:32;6.53;;;3.58;;
66342;SDS011;53144;51.524;5.080;2023-08-17T09:48:57;6.22;;;3.67;;
66342;SDS011;53144;51.524;5.080;2023-08-17T09:51:23;10.73;;;4.80;;
66342;SDS011;53144;51.524;5.080;2023-08-17T09:53:52;9.30;;;4.80;;
66342;SDS011;53144;51.524;5.080;2023-08-17T09:56:19;10.27;;;4.13;;
66342;SDS011;53144;51.524;5.080;2023-08-17T09:58:49;13.35;;;4.75;;
66342;SDS011;53144;51.524;5.080;2023-08-17T10:01:15;10.77;;;4.13;;
66342;SDS011;53144;51.524;5.080;2023-08-17T10:03:43;12.10;;;5.15;;
66342;SDS011;53144;51.524;5.080;2023-08-17T10:06:15;8.40;;;4.38;;
66342;SDS011;53144;51.524;5.080;2023-08-17T10:08:46;12.48;;;4.70;;
66342;SDS011;53144;51.524;5.080;2023-08-17T10:11:14;7.78;;;3.80;;
66342;SDS011;53144;51.524;5.080;2023-08-17T10:14:02;9.48;;;4.85;;
66342;SDS011;53144;51.524;5.080;2023-08-17T10:16:46;8.25;;;4.30;;
66342;SDS011;53144;51.524;5.080;2023-08-17T10:19:41;10.75;;;4.47;;
66342;SDS011;53144;51.524;5.080;2023-08-17T10:22:18;11.55;;;5.35;;
66342;SDS011;53144;51.524;5.080;2023-08-17T10:24:51;12.88;;;5.00;;
66342;SDS011;53144;51.524;5.080;2023-08-17T10:27:17;12.13;;;5.40;;
66342;SDS011;53144;51.524;5.080;2023-08-17T10:29:45;14.00;;;5.70;;
66342;SDS011;53144;51.524;5.080;2023-08-17T10:32:12;11.60;;;5.78;;
66342;SDS011;53144;51.524;5.080;2023-08-17T10:34:38;16.67;;;5.65;;
66342;SDS011;53144;51.524;5.080;2023-08-17T10:37:04;10.05;;;5.07;;
66342;SDS011;53144;51.524;5.080;2023-08-17T10:39:30;9.98;;;5.18;;
66342;SDS011;53144;51.524;5.080;2023-08-17T10:41:56;13.85;;;5.65;;
66342;SDS011;53144;51.524;5.080;2023-08-17T10:44:39;11.27;;;6.47;;
66342;SDS011;53144;51.524;5.080;2023-08-17T10:47:18;10.57;;;5.75;;
66342;SDS011;53144;51.524;5.080;2023-08-17T10:49:45;9.25;;;5.10;;
66342;SDS011;53144;51.524;5.080;2023-08-17T10:52:12;11.43;;;5.47;;
66342;SDS011;53144;51.524;5.080;2023-08-17T10:54:38;9.10;;;5.28;;
66342;SDS011;53144;51.524;5.080;2023-08-17T11:02:33;11.32;;;6.10;;
66342;SDS011;53144;51.524;5.080;2023-08-17T11:05:00;9.75;;;5.15;;
66342;SDS011;53144;51.524;5.080;2023-08-17T11:07:27;13.90;;;5.57;;
66342;SDS011;53144;51.524;5.080;2023-08-17T11:09:53;11.93;;;5.93;;
66342;SDS011;53144;51.524;5.080;2023-08-17T11:12:25;10.75;;;5.40;;
66342;SDS011;53144;51.524;5.080;2023-08-17T11:14:51;13.13;;;5.65;;
66342;SDS011;53144;51.524;5.080;2023-08-17T11:17:19;12.40;;;6.53;;
66342;SDS011;53144;51.524;5.080;2023-08-17T11:19:45;14.55;;;6.60;;
66342;SDS011;53144;51.524;5.080;2023-08-17T11:22:11;9.63;;;5.40;;
66342;SDS011;53144;51.524;5.080;2023-08-17T11:24:37;10.93;;;6.18;;
66342;SDS011;53144;51.524;5.080;2023-08-17T11:27:05;13.73;;;6.22;;
66342;SDS011;53144;51.524;5.080;2023-08-17T11:29:31;10.60;;;6.18;;
66342;SDS011;53144;51.524;5.080;2023-08-17T11:31:57;12.23;;;5.93;;
66342;SDS011;53144;51.524;5.080;2023-08-17T11:34:23;13.20;;;6.20;;
66342;SDS011;53144;51.524;5.080;2023-08-17T11:36:48;12.93;;;6.25;;
66342;SDS011;53144;51.524;5.080;2023-08-17T11:39:13;11.13;;;6.72;;
66342;SDS011;53144;51.524;5.080;2023-08-17T11:41:39;8.98;;;6.25;;
66342;SDS011;53144;51.524;5.080;2023-08-17T11:44:05;12.27;;;6.93;;
66342;SDS011;53144;51.524;5.080;2023-08-17T11:46:31;12.23;;;6.18;;
66342;SDS011;53144;51.524;5.080;2023-08-17T11:49:00;12.15;;;6.15;;
66342;SDS011;53144;51.524;5.080;2023-08-17T11:51:32;11.88;;;5.47;;
66342;SDS011;53144;51.524;5.080;2023-08-17T11:54:00;9.73;;;5.97;;
66342;SDS011;53144;51.524;5.080;2023-08-17T11:56:28;17.48;;;6.97;;
66342;SDS011;53144;51.524;5.080;2023-08-17T11:58:54;14.80;;;5.93;;
66342;SDS011;53144;51.524;5.080;2023-08-17T12:01:20;9.80;;;5.22;;
66342;SDS011;53144;51.524;5.080;2023-08-17T12:03:46;10.70;;;5.80;;
66342;SDS011;53144;51.524;5.080;2023-08-17T12:06:15;13.05;;;6.88;;
66342;SDS011;53144;51.524;5.080;2023-08-17T12:08:47;10.35;;;5.88;;
66342;SDS011;53144;51.524;5.080;2023-08-17T12:11:13;13.85;;;5.88;;
66342;SDS011;53144;51.524;5.080;2023-08-17T12:13:38;12.73;;;6.60;;
66342;SDS011;53144;51.524;5.080;2023-08-17T12:16:03;19.20;;;11.10;;
66342;SDS011;53144;51.524;5.080;2023-08-17T12:18:32;18.13;;;11.00;;
66342;SDS011;53144;51.524;5.080;2023-08-17T12:21:03;13.68;;;8.13;;
66342;SDS011;53144;51.524;5.080;2023-08-17T12:23:28;14.32;;;8.18;;
66342;SDS011;53144;51.524;5.080;2023-08-17T12:25:54;16.08;;;7.93;;
66342;SDS011;53144;51.524;5.080;2023-08-17T12:28:21;13.38;;;7.43;;
66342;SDS011;53144;51.524;5.080;2023-08-17T12:30:47;13.93;;;8.15;;
66342;SDS011;53144;51.524;5.080;2023-08-17T12:33:22;17.63;;;8.02;;
66342;SDS011;53144;51.524;5.080;2023-08-17T12:35:47;11.23;;;7.35;;
66342;SDS011;53144;51.524;5.080;2023-08-17T12:38:13;13.27;;;7.90;;
66342;SDS011;53144;51.524;5.080;2023-08-17T12:40:39;15.27;;;8.40;;
66342;SDS011;53144;51.524;5.080;2023-08-17T12:43:04;13.75;;;7.40;;
66342;SDS011;53144;51.524;5.080;2023-08-17T12:45:30;13.35;;;7.55;;
66342;SDS011;53144;51.524;5.080;2023-08-17T12:47:56;12.63;;;7.82;;
66342;SDS011;53144;51.524;5.080;2023-08-17T12:50:21;11.63;;;7.57;;
66342;SDS011;53144;51.524;5.080;2023-08-17T12:52:47;16.55;;;8.27;;
66342;SDS011;53144;51.524;5.080;2023-08-17T12:55:12;13.95;;;7.60;;
66342;SDS011;53144;51.524;5.080;2023-08-17T12:57:37;15.40;;;7.78;;
66342;SDS011;53144;51.524;5.080;2023-08-17T13:00:03;15.07;;;7.80;;
66342;SDS011;53144;51.524;5.080;2023-08-17T13:02:29;15.25;;;8.43;;
66342;SDS011;53144;51.524;5.080;2023-08-17T13:04:54;18.92;;;9.25;;
66342;SDS011;53144;51.524;5.080;2023-08-17T13:07:20;13.32;;;8.13;;
66342;SDS011;53144;51.524;5.080;2023-08-17T13:09:45;19.23;;;8.73;;
66342;SDS011;53144;51.524;5.080;2023-08-17T13:12:11;15.15;;;8.27;;
66342;SDS011;53144;51.524;5.080;2023-08-17T13:14:37;15.88;;;8.35;;
66342;SDS011;53144;51.524;5.080;2023-08-17T13:17:02;15.18;;;8.35;;
66342;SDS011;53144;51.524;5.080;2023-08-17T13:19:28;14.20;;;8.40;;
66342;SDS011;53144;51.524;5.080;2023-08-17T13:21:53;14.65;;;8.18;;
66342;SDS011;53144;51.524;5.080;2023-08-17T13:24:19;14.38;;;8.20;;
66342;SDS011;53144;51.524;5.080;2023-08-17T13:26:44;15.73;;;8.40;;
66342;SDS011;53144;51.524;5.080;2023-08-17T13:29:10;13.60;;;8.43;;
66342;SDS011;53144;51.524;5.080;2023-08-17T13:31:35;17.27;;;9.43;;
66342;SDS011;53144;51.524;5.080;2023-08-17T13:34:01;16.70;;;8.45;;
66342;SDS011;53144;51.524;5.080;2023-08-17T13:36:26;15.07;;;9.45;;
66342;SDS011;53144;51.524;5.080;2023-08-17T13:38:51;15.95;;;8.90;;
66342;SDS011;53144;51.524;5.080;2023-08-17T13:41:17;12.90;;;8.52;;
66342;SDS011;53144;51.524;5.080;2023-08-17T13:43:42;15.88;;;9.02;;
66342;SDS011;53144;51.524;5.080;2023-08-17T13:46:08;11.70;;;7.68;;
66342;SDS011;53144;51.524;5.080;2023-08-17T13:48:33;13.38;;;8.60;;
66342;SDS011;53144;51.524;5.080;2023-08-17T13:50:59;22.58;;;8.48;;
66342;SDS011;53144;51.524;5.080;2023-08-17T13:53:24;12.85;;;8.07;;
66342;SDS011;53144;51.524;5.080;2023-08-17T13:55:50;12.05;;;7.57;;
66342;SDS011;53144;51.524;5.080;2023-08-17T13:58:15;13.23;;;8.05;;
66342;SDS011;53144;51.524;5.080;2023-08-17T14:00:41;16.50;;;9.07;;
66342;SDS011;53144;51.524;5.080;2023-08-17T14:03:06;18.38;;;8.45;;
66342;SDS011;53144;51.524;5.080;2023-08-17T14:05:32;17.17;;;8.55;;
66342;SDS011;53144;51.524;5.080;2023-08-17T14:07:58;14.00;;;8.18;;
66342;SDS011;53144;51.524;5.080;2023-08-17T14:10:23;14.70;;;8.63;;
66342;SDS011;53144;51.524;5.080;2023-08-17T14:12:49;16.20;;;8.10;;
66342;SDS011;53144;51.524;5.080;2023-08-17T14:15:14;13.63;;;8.90;;
66342;SDS011;53144;51.524;5.080;2023-08-17T14:17:40;13.43;;;8.63;;
66342;SDS011;53144;51.524;5.080;2023-08-17T14:20:05;15.57;;;8.57;;
66342;SDS011;53144;51.524;5.080;2023-08-17T14:22:31;15.88;;;8.43;;
66342;SDS011;53144;51.524;5.080;2023-08-17T14:24:57;13.30;;;8.40;;
66342;SDS011;53144;51.524;5.080;2023-08-17T14:27:22;17.45;;;8.90;;
66342;SDS011;53144;51.524;5.080;2023-08-17T14:29:48;12.73;;;7.70;;
66342;SDS011;53144;51.524;5.080;2023-08-17T14:32:14;19.23;;;9.48;;
66342;SDS011;53144;51.524;5.080;2023-08-17T14:34:40;16.17;;;8.98;;
66342;SDS011;53144;51.524;5.080;2023-08-17T14:37:05;13.15;;;8.52;;
66342;SDS011;53144;51.524;5.080;2023-08-17T14:39:31;13.68;;;7.80;;
66342;SDS011;53144;51.524;5.080;2023-08-17T14:41:56;15.65;;;8.60;;
66342;SDS011;53144;51.524;5.080;2023-08-17T14:44:22;15.85;;;8.20;;
66342;SDS011;53144;51.524;5.080;2023-08-17T14:46:47;15.45;;;8.48;;
66342;SDS011;53144;51.524;5.080;2023-08-17T14:49:13;11.98;;;8.52;;